createdAt,value
2019-02-09T00:01:25.012Z,2.50
2019-02-09T00:04:14.931Z,2.60
2019-02-09T00:07:04.726Z,3.07
2019-02-09T00:09:45.448Z,2.80
2019-02-09T00:12:35.052Z,2.70
2019-02-09T00:15:24.621Z,2.90
2019-02-09T00:18:15.841Z,3.07
2019-02-09T00:21:05.510Z,3.20
2019-02-09T00:23:55.158Z,2.40
2019-02-09T00:26:35.259Z,3.40
2019-02-09T00:29:24.641Z,3.37
2019-02-09T00:32:13.871Z,3.40
2019-02-09T00:35:03.473Z,3.23
2019-02-09T00:37:53.208Z,3.40
2019-02-09T00:40:45.073Z,3.60
2019-02-09T00:43:34.595Z,4.13
2019-02-09T00:46:24.303Z,3.37
2019-02-09T00:49:13.799Z,3.30
2019-02-09T00:52:03.468Z,3.63
2019-02-09T00:54:54.087Z,3.03
2019-02-09T00:57:43.663Z,3.63
2019-02-09T01:00:33.604Z,3.50
2019-02-09T01:03:23.281Z,3.13
2019-02-09T01:06:12.594Z,3.17
2019-02-09T01:08:42.964Z,3.30
2019-02-09T01:11:32.253Z,3.20
2019-02-09T01:14:21.694Z,3.23
2019-02-09T01:17:26.539Z,3.10
2019-02-09T01:20:02.373Z,2.93
2019-02-09T01:22:52.458Z,3.13
2019-02-09T01:25:41.789Z,2.70
2019-02-09T01:28:23.500Z,3.00
2019-02-09T01:31:05.164Z,2.73
2019-02-09T01:33:47.141Z,3.10
2019-02-09T01:36:28.361Z,2.90
2019-02-09T01:39:10.064Z,2.90
2019-02-09T01:41:50.099Z,2.73
2019-02-09T01:45:02.528Z,2.80
2019-02-09T01:47:51.798Z,2.90
2019-02-09T01:50:41.147Z,2.30
2019-02-09T01:53:30.797Z,3.07
2019-02-09T01:56:01.162Z,2.50
2019-02-09T01:58:50.819Z,2.50
2019-02-09T02:01:40.395Z,2.13
2019-02-09T02:04:29.651Z,2.50
2019-02-09T02:07:19.420Z,2.30
2019-02-09T02:10:10.733Z,2.37
2019-02-09T02:13:00.636Z,2.43
2019-02-09T02:15:50.192Z,2.23
2019-02-09T02:18:31.829Z,2.50
2019-02-09T02:21:13.142Z,2.00
2019-02-09T02:23:55.507Z,2.40
2019-02-09T02:26:37.174Z,2.50
2019-02-09T02:32:08.464Z,2.70
2019-02-09T02:34:50.334Z,2.37
2019-02-09T02:37:31.806Z,2.27
2019-02-09T02:40:13.786Z,1.80
2019-02-09T02:42:55.478Z,2.20
2019-02-09T02:45:36.998Z,2.00
2019-02-09T02:48:18.637Z,2.20
2019-02-09T02:51:00.663Z,2.03
2019-02-09T02:53:42.238Z,2.13
2019-02-09T02:56:24.848Z,2.40
2019-02-09T02:59:06.278Z,2.10
2019-02-09T03:01:48.103Z,1.80
2019-02-09T03:04:29.517Z,2.00
2019-02-09T03:07:10.339Z,2.20
2019-02-09T03:10:18.517Z,1.60
2019-02-09T03:13:28.418Z,2.00
2019-02-09T03:16:18.296Z,1.70
2019-02-09T03:19:00.277Z,1.90
2019-02-09T03:21:42.287Z,1.50
2019-02-09T03:24:13.513Z,2.20
2019-02-09T03:27:02.730Z,1.90
2019-02-09T03:29:33.419Z,2.07
2019-02-09T03:32:23.119Z,1.93
2019-02-09T03:35:12.900Z,1.53
2019-02-09T03:37:43.389Z,1.80
2019-02-09T03:40:32.997Z,1.40
2019-02-09T03:43:22.336Z,1.57
2019-02-09T03:46:12.299Z,1.40
2019-02-09T03:49:01.892Z,1.60
2019-02-09T03:51:51.162Z,1.30
2019-02-09T03:54:22.510Z,1.57
2019-02-09T03:57:12.609Z,1.73
2019-02-09T04:00:02.238Z,2.00
2019-02-09T04:02:51.873Z,1.40
2019-02-09T04:05:41.158Z,1.50
2019-02-09T04:08:30.759Z,1.10
2019-02-09T04:11:19.995Z,1.07
2019-02-09T04:14:09.681Z,1.00
2019-02-09T04:16:40.029Z,0.87
2019-02-09T04:19:29.486Z,1.00
2019-02-09T04:22:19.153Z,1.13
2019-02-09T04:25:09.478Z,0.90
2019-02-09T04:27:59.077Z,1.10
2019-02-09T04:30:48.803Z,1.20
2019-02-09T04:33:38.389Z,1.10
2019-02-09T04:37:02.313Z,1.00
2019-02-09T04:39:51.773Z,0.90
2019-02-09T04:42:41.378Z,0.90
2019-02-09T04:45:30.751Z,1.13
2019-02-09T04:48:20.382Z,1.20
2019-02-09T04:51:09.930Z,1.30
2019-02-09T04:53:40.147Z,1.23
2019-02-09T04:56:10.382Z,1.00
2019-02-09T04:58:47.963Z,1.10
2019-02-09T05:01:18.158Z,1.30
2019-02-09T05:04:07.748Z,1.40
2019-02-09T05:06:57.008Z,1.07
2019-02-09T05:09:46.898Z,1.10
2019-02-09T05:12:36.184Z,1.10
2019-02-09T05:15:25.758Z,1.10
2019-02-09T05:18:16.190Z,1.13
2019-02-09T05:20:57.753Z,1.20
2019-02-09T05:23:28.665Z,1.10
2019-02-09T05:26:17.980Z,1.13
2019-02-09T05:28:48.334Z,1.00
2019-02-09T05:31:37.708Z,1.03
2019-02-09T05:34:27.433Z,1.20
2019-02-09T05:37:17.012Z,1.33
2019-02-09T05:40:06.524Z,1.10
2019-02-09T05:42:56.317Z,1.20
2019-02-09T05:45:45.945Z,1.37
2019-02-09T05:48:16.304Z,1.20
2019-02-09T05:51:06.127Z,1.03
2019-02-09T05:56:33.013Z,1.10
2019-02-09T05:59:22.272Z,1.30
2019-02-09T06:01:52.904Z,1.40
2019-02-09T06:04:42.266Z,1.10
2019-02-09T06:07:13.065Z,1.67
2019-02-09T06:09:43.364Z,1.40
2019-02-09T06:12:16.141Z,1.37
2019-02-09T06:14:47.413Z,1.20
2019-02-09T06:17:17.784Z,1.30
2019-02-09T06:20:07.501Z,1.20
2019-02-09T06:22:57.486Z,1.20
2019-02-09T06:25:47.091Z,1.47
2019-02-09T06:28:36.623Z,1.43
2019-02-09T06:31:25.977Z,1.63
2019-02-09T06:34:15.810Z,1.20
2019-02-09T06:37:05.415Z,1.70
2019-02-09T06:39:54.836Z,1.40
2019-02-09T06:42:44.514Z,1.30
2019-02-09T06:45:34.055Z,1.20
2019-02-09T06:48:24.752Z,1.33
2019-02-09T06:51:16.714Z,1.30
2019-02-09T06:54:06.064Z,1.40
2019-02-09T06:56:56.001Z,1.90
2019-02-09T06:59:26.277Z,2.10
2019-02-09T07:02:15.893Z,1.93
2019-02-09T07:05:24.997Z,1.50
2019-02-09T07:08:14.487Z,2.17
2019-02-09T07:14:13.968Z,2.37
2019-02-09T07:17:03.804Z,2.13
2019-02-09T07:19:53.426Z,1.40
2019-02-09T07:22:35.097Z,1.50
2019-02-09T07:25:16.845Z,1.07
2019-02-09T07:27:57.559Z,1.00
2019-02-09T07:30:47.039Z,1.10
2019-02-09T07:33:36.387Z,1.10
2019-02-09T07:36:16.970Z,1.17
2019-02-09T07:39:09.108Z,1.10
2019-02-09T07:41:58.369Z,1.10
2019-02-09T07:44:47.663Z,3.23
2019-02-09T07:47:37.881Z,1.73
2019-02-09T07:50:27.381Z,1.13
2019-02-09T07:53:16.707Z,1.17
2019-02-09T07:56:06.489Z,4.00
2019-02-09T08:01:48.789Z,1.40
2019-02-09T08:04:48.602Z,1.00
2019-02-09T08:07:18.983Z,1.20
2019-02-09T08:10:10.221Z,1.10
2019-02-09T08:13:00.239Z,1.00
2019-02-09T08:15:31.477Z,1.03
2019-02-09T08:18:21.203Z,1.13
2019-02-09T08:21:03.101Z,1.90
2019-02-09T08:23:44.665Z,1.57
2019-02-09T08:29:07.578Z,3.23
2019-02-09T08:31:38.158Z,1.33
2019-02-09T08:34:27.658Z,1.03
2019-02-09T08:37:07.714Z,1.10
2019-02-09T08:43:07.935Z,0.87
2019-02-09T08:45:57.574Z,1.07
2019-02-09T08:48:46.912Z,1.00
2019-02-09T08:51:21.661Z,1.23
2019-02-09T08:54:12.059Z,1.20
2019-02-09T08:56:42.245Z,1.10
2019-02-09T08:59:31.862Z,1.13
2019-02-09T09:02:06.676Z,1.20
2019-02-09T09:04:36.991Z,0.90
2019-02-09T09:07:37.571Z,0.87
2019-02-09T09:10:24.940Z,1.70
2019-02-09T09:13:14.641Z,1.63
2019-02-09T09:15:55.119Z,1.50
2019-02-09T09:21:20.404Z,1.10
2019-02-09T09:23:55.769Z,0.80
2019-02-09T09:26:44.622Z,1.13
2019-02-09T09:29:15.607Z,1.10
2019-02-09T09:31:46.517Z,1.27
2019-02-09T09:34:44.558Z,1.00
2019-02-09T09:40:13.477Z,1.00
2019-02-09T09:42:46.500Z,2.63
2019-02-09T09:45:19.655Z,1.30
2019-02-09T09:47:50.337Z,1.07
2019-02-09T09:50:22.117Z,1.27
2019-02-09T09:52:52.748Z,1.53
2019-02-09T09:55:42.281Z,1.27
2019-02-09T09:58:33.634Z,1.07
2019-02-09T10:01:03.934Z,1.10
2019-02-09T10:03:34.172Z,1.00
2019-02-09T10:06:23.642Z,1.37
2019-02-09T10:08:54.156Z,1.43
2019-02-09T10:11:24.424Z,1.50
2019-02-09T10:13:54.629Z,1.40
2019-02-09T10:16:44.134Z,1.40
2019-02-09T10:19:14.452Z,1.20
2019-02-09T10:22:03.861Z,1.40
2019-02-09T10:24:53.704Z,2.57
2019-02-09T10:27:35.425Z,1.30
2019-02-09T10:33:00.417Z,0.80
2019-02-09T10:35:58.159Z,0.70
2019-02-09T10:38:49.752Z,1.20
2019-02-09T10:41:20.474Z,1.17
2019-02-09T10:44:09.853Z,1.00
2019-02-09T10:46:59.442Z,1.40
2019-02-09T10:49:48.942Z,1.23
2019-02-09T10:52:22.198Z,1.50
2019-02-09T10:55:11.761Z,1.67
2019-02-09T10:57:48.070Z,1.40
2019-02-09T11:00:42.277Z,0.97
2019-02-09T11:03:13.115Z,1.27
2019-02-09T11:05:44.771Z,1.30
2019-02-09T11:08:34.890Z,1.70
2019-02-09T11:11:24.102Z,1.13
2019-02-09T11:14:13.733Z,1.10
2019-02-09T11:17:03.488Z,1.33
2019-02-09T11:19:53.138Z,1.40
2019-02-09T11:22:34.589Z,1.40
2019-02-09T11:27:59.321Z,1.60
2019-02-09T11:30:41.535Z,1.80
2019-02-09T11:33:22.732Z,1.40
2019-02-09T11:38:45.816Z,1.80
2019-02-09T11:41:20.036Z,2.00
2019-02-09T11:43:50.651Z,1.67
2019-02-09T11:46:21.120Z,1.47
2019-02-09T11:48:51.482Z,1.50
2019-02-09T11:51:21.778Z,1.60
2019-02-09T11:54:13.449Z,1.63
2019-02-09T11:56:45.455Z,1.67
2019-02-09T11:59:38.393Z,1.53
2019-02-09T12:02:27.745Z,1.07
2019-02-09T12:05:17.267Z,1.63
2019-02-09T12:07:51.606Z,1.20
2019-02-09T12:10:40.942Z,1.27
2019-02-09T12:13:11.254Z,1.30
2019-02-09T12:16:00.557Z,1.60
2019-02-09T12:18:50.282Z,1.33
2019-02-09T12:21:39.865Z,1.43
2019-02-09T12:24:21.272Z,1.20
2019-02-09T12:27:02.868Z,0.90
2019-02-09T12:29:33.509Z,1.10
2019-02-09T12:32:23.218Z,1.10
2019-02-09T12:35:13.533Z,1.33
2019-02-09T12:37:43.814Z,1.00
2019-02-09T12:40:21.228Z,1.37
2019-02-09T12:42:51.855Z,1.57
2019-02-09T12:45:23.096Z,1.53
2019-02-09T12:48:12.682Z,1.50
2019-02-09T12:50:43.616Z,1.20
2019-02-09T12:53:32.992Z,1.33
2019-02-09T12:56:03.473Z,1.40
2019-02-09T12:58:34.616Z,1.57
2019-02-09T13:01:24.353Z,1.20
2019-02-09T13:04:13.849Z,1.83
2019-02-09T13:07:07.581Z,1.30
2019-02-09T13:09:57.227Z,1.23
2019-02-09T13:12:55.799Z,1.47
2019-02-09T13:15:47.226Z,1.77
2019-02-09T13:18:38.486Z,1.30
2019-02-09T13:21:10.329Z,1.50
2019-02-09T13:23:41.616Z,1.37
2019-02-09T13:26:12.676Z,1.30
2019-02-09T13:28:43.290Z,2.30
2019-02-09T13:31:17.671Z,1.27
2019-02-09T13:34:08.540Z,1.47
2019-02-09T13:36:57.939Z,1.27
2019-02-09T13:39:47.567Z,1.53
2019-02-09T13:42:36.886Z,1.60
2019-02-09T13:45:15.356Z,1.97
2019-02-09T13:48:06.264Z,1.10
2019-02-09T13:50:55.529Z,1.40
2019-02-09T13:53:26.052Z,1.60
2019-02-09T13:55:56.490Z,1.63
2019-02-09T13:58:28.044Z,1.53
2019-02-09T14:01:20.629Z,1.10
2019-02-09T14:07:06.143Z,1.20
2019-02-09T14:09:45.648Z,1.13
2019-02-09T14:12:35.243Z,1.50
2019-02-09T14:15:27.852Z,1.20
2019-02-09T14:18:19.490Z,1.20
2019-02-09T14:21:09.016Z,1.10
2019-02-09T14:24:02.481Z,0.90
2019-02-09T14:26:32.973Z,1.07
2019-02-09T14:29:03.902Z,1.10
2019-02-09T14:31:48.484Z,1.13
2019-02-09T14:34:29.505Z,1.30
2019-02-09T14:36:59.856Z,1.10
2019-02-09T14:39:30.379Z,1.47
2019-02-09T14:42:00.709Z,1.37
2019-02-09T14:44:32.089Z,1.30
2019-02-09T14:47:05.490Z,1.20
2019-02-09T14:52:17.473Z,1.10
2019-02-09T14:54:48.000Z,1.20
2019-02-09T14:57:38.658Z,1.20
2019-02-09T15:00:29.912Z,1.40
2019-02-09T15:03:27.237Z,1.43
2019-02-09T15:05:54.656Z,2.43
2019-02-09T15:08:47.012Z,1.30
2019-02-09T15:11:17.482Z,1.37
2019-02-09T15:14:07.013Z,1.30
2019-02-09T15:19:53.666Z,1.23
2019-02-09T15:22:24.221Z,1.23
2019-02-09T15:24:56.814Z,1.03
2019-02-09T15:27:38.785Z,1.30
2019-02-09T15:30:20.985Z,1.20
2019-02-09T15:32:52.131Z,1.10
2019-02-09T15:35:41.714Z,1.10
2019-02-09T15:38:31.113Z,1.10
2019-02-09T15:41:20.726Z,1.20
2019-02-09T15:44:10.071Z,1.40
2019-02-09T15:46:40.724Z,1.80
2019-02-09T15:49:30.468Z,1.77
2019-02-09T15:52:19.970Z,1.73
2019-02-09T15:55:10.360Z,1.97
2019-02-09T15:57:59.681Z,1.40
2019-02-09T16:01:09.239Z,1.37
2019-02-09T16:03:39.534Z,2.07
2019-02-09T16:06:29.087Z,1.37
2019-02-09T16:08:59.404Z,1.50
2019-02-09T16:11:29.682Z,1.87
2019-02-09T16:14:01.828Z,1.43
2019-02-09T16:16:32.061Z,1.97
2019-02-09T16:19:13.429Z,1.67
2019-02-09T16:21:44.235Z,2.03
2019-02-09T16:24:34.129Z,1.90
2019-02-09T16:27:23.487Z,1.87
2019-02-09T16:29:53.793Z,1.60
2019-02-09T16:32:24.343Z,1.67
2019-02-09T16:35:15.631Z,1.43
2019-02-09T16:38:05.377Z,1.80
2019-02-09T16:40:47.174Z,1.90
2019-02-09T16:43:37.868Z,1.80
2019-02-09T16:46:28.789Z,1.83
2019-02-09T16:49:18.410Z,2.17
2019-02-09T16:52:07.715Z,2.17
2019-02-09T16:54:57.500Z,1.90
2019-02-09T16:57:27.874Z,1.60
2019-02-09T17:00:21.400Z,3.10
2019-02-09T17:03:11.238Z,1.50
2019-02-09T17:06:01.375Z,1.87
2019-02-09T17:08:51.466Z,2.00
2019-02-09T17:11:41.154Z,1.60
2019-02-09T17:17:30.361Z,1.80
2019-02-09T17:20:20.793Z,2.37
2019-02-09T17:22:53.654Z,2.63
2019-02-09T17:25:27.371Z,2.27
2019-02-09T17:28:19.830Z,2.20
2019-02-09T17:30:53.676Z,1.73
2019-02-09T17:33:27.086Z,2.20
2019-02-09T17:35:58.692Z,1.80
2019-02-09T17:38:30.530Z,2.27
2019-02-09T17:41:03.707Z,2.33
2019-02-09T17:43:37.332Z,2.00
2019-02-09T17:46:16.332Z,1.90
2019-02-09T17:49:10.267Z,1.87
2019-02-09T17:51:44.559Z,1.53
2019-02-09T17:54:15.793Z,1.77
2019-02-09T17:57:06.428Z,2.27
2019-02-09T17:59:53.852Z,2.10
2019-02-09T18:02:31.441Z,2.07
2019-02-09T18:05:22.187Z,1.77
2019-02-09T18:08:12.508Z,1.63
2019-02-09T18:10:44.304Z,1.53
2019-02-09T18:13:15.809Z,1.47
2019-02-09T18:15:47.364Z,1.90
2019-02-09T18:18:18.719Z,1.80
2019-02-09T18:20:50.457Z,1.97
2019-02-09T18:23:22.598Z,1.40
2019-02-09T18:25:53.651Z,1.80
2019-02-09T18:28:43.477Z,1.93
2019-02-09T18:31:33.280Z,1.90
2019-02-09T18:34:23.517Z,2.17
2019-02-09T18:40:19.078Z,1.90
2019-02-09T18:43:26.927Z,1.83
2019-02-09T18:46:17.405Z,1.40
2019-02-09T18:49:08.383Z,1.77
2019-02-09T18:51:41.355Z,2.40
2019-02-09T18:54:32.160Z,1.87
2019-02-09T18:57:22.786Z,2.03
2019-02-09T19:00:13.886Z,1.73
2019-02-09T19:03:04.000Z,1.83
2019-02-09T19:05:55.981Z,1.63
2019-02-09T19:08:47.190Z,2.10
2019-02-09T19:11:56.536Z,2.03
2019-02-09T19:14:30.508Z,1.63
2019-02-09T19:17:20.877Z,2.33
2019-02-09T19:20:12.795Z,1.90
2019-02-09T19:22:44.967Z,1.53
2019-02-09T19:25:35.411Z,2.50
2019-02-09T19:28:25.870Z,2.17
2019-02-09T19:31:17.396Z,1.93
2019-02-09T19:34:21.654Z,1.80
2019-02-09T19:36:51.664Z,2.10
2019-02-09T19:39:24.295Z,7.63
2019-02-09T19:45:30.771Z,2.17
2019-02-09T19:51:30.737Z,2.30
2019-02-09T19:54:04.328Z,2.60
2019-02-09T19:56:54.686Z,1.97
2019-02-09T20:02:38.287Z,2.37
2019-02-09T20:05:46.901Z,2.23
2019-02-09T20:08:37.471Z,2.00
2019-02-09T20:11:30.390Z,2.20
2019-02-09T20:14:22.336Z,2.00
2019-02-09T20:17:13.888Z,2.20
2019-02-09T20:19:55.447Z,2.50
2019-02-09T20:22:37.799Z,2.30
2019-02-09T20:25:20.947Z,2.13
2019-02-09T20:28:05.559Z,2.30
2019-02-09T20:33:20.816Z,2.07
2019-02-09T20:35:54.549Z,2.50
2019-02-09T20:38:26.677Z,2.10
2019-02-09T20:41:20.005Z,2.20
2019-02-09T20:44:12.639Z,2.50
2019-02-09T20:47:03.331Z,2.07
2019-02-09T20:49:55.723Z,2.70
2019-02-09T20:52:45.948Z,2.60
2019-02-09T20:55:38.636Z,2.40
2019-02-09T20:58:12.522Z,2.57
2019-02-09T21:00:44.127Z,2.20
2019-02-09T21:03:16.624Z,2.70
2019-02-09T21:06:07.236Z,2.20
2019-02-09T21:08:38.609Z,2.20
2019-02-09T21:11:15.203Z,2.83
2019-02-09T21:13:47.642Z,2.20
2019-02-09T21:16:38.017Z,2.33
2019-02-09T21:19:32.275Z,2.30
2019-02-09T21:22:04.634Z,2.80
2019-02-09T21:24:54.953Z,2.23
2019-02-09T21:27:31.779Z,2.47
2019-02-09T21:30:22.315Z,2.80
2019-02-09T21:32:58.127Z,2.27
2019-02-09T21:35:48.616Z,2.77
2019-02-09T21:38:21.165Z,2.73
2019-02-09T21:40:55.127Z,2.47
2019-02-09T21:43:28.754Z,3.70
2019-02-09T21:46:19.483Z,3.70
2019-02-09T21:48:54.414Z,3.13
2019-02-09T21:51:25.963Z,2.87
2019-02-09T21:54:18.212Z,2.93
2019-02-09T21:57:27.189Z,2.93
2019-02-09T21:59:58.895Z,3.00
2019-02-09T22:02:51.255Z,2.20
2019-02-09T22:05:42.025Z,3.53
2019-02-09T22:08:32.380Z,2.30
2019-02-09T22:11:22.849Z,2.60
2019-02-09T22:13:55.511Z,3.20
2019-02-09T22:16:46.205Z,5.03
2019-02-09T22:19:38.510Z,3.20
2019-02-09T22:22:22.374Z,9.60
2019-02-09T22:25:03.835Z,3.63
2019-02-09T22:27:54.168Z,3.43
2019-02-09T22:30:28.380Z,3.07
2019-02-09T22:33:24.805Z,3.67
2019-02-09T22:36:00.043Z,6.27
2019-02-09T22:38:49.501Z,2.80
2019-02-09T22:41:21.566Z,3.90
2019-02-09T22:43:53.326Z,3.10
2019-02-09T22:46:44.231Z,2.80
2019-02-09T22:49:16.197Z,3.37
2019-02-09T22:52:07.714Z,2.97
2019-02-09T22:54:57.905Z,2.87
2019-02-09T22:58:10.747Z,3.23
2019-02-09T23:01:09.268Z,2.90
